createdAt,value
2022-10-24T00:01:23.729Z,3.30
2022-10-24T00:03:50.864Z,3.53
2022-10-24T00:06:18.552Z,2.90
2022-10-24T00:08:45.596Z,2.75
2022-10-24T00:11:16.098Z,2.47
2022-10-24T00:13:43.528Z,2.58
2022-10-24T00:16:11.210Z,2.78
2022-10-24T00:18:38.554Z,2.42
2022-10-24T00:21:06.438Z,2.70
2022-10-24T00:23:33.462Z,2.50
2022-10-24T00:26:02.043Z,2.70
2022-10-24T00:28:30.568Z,3.95
2022-10-24T00:30:57.665Z,3.28
2022-10-24T00:33:25.599Z,2.50
2022-10-24T00:35:53.101Z,2.88
2022-10-24T00:38:20.175Z,2.67
2022-10-24T00:40:47.407Z,3.08
2022-10-24T00:43:16.899Z,3.47
2022-10-24T00:45:55.732Z,2.95
2022-10-24T00:48:33.573Z,3.35
2022-10-24T00:51:21.551Z,3.92
2022-10-24T00:53:51.783Z,3.08
2022-10-24T00:56:23.995Z,3.25
2022-10-24T00:58:53.994Z,4.45
2022-10-24T01:01:21.069Z,3.70
2022-10-24T01:03:48.024Z,11.73
2022-10-24T01:06:23.943Z,6.78
2022-10-24T01:09:23.461Z,8.82
2022-10-24T01:11:50.280Z,13.27
2022-10-24T01:14:46.205Z,11.07
2022-10-24T01:17:28.713Z,11.40
2022-10-24T01:20:35.259Z,10.88
2022-10-24T01:26:29.570Z,10.68
2022-10-24T01:29:17.512Z,11.23
2022-10-24T01:32:34.681Z,11.60
2022-10-24T01:35:13.495Z,13.98
2022-10-24T01:37:54.912Z,16.63
2022-10-24T01:40:31.714Z,13.45
2022-10-24T01:43:03.294Z,14.55
2022-10-24T01:45:36.814Z,15.63
2022-10-24T01:48:08.008Z,13.02
2022-10-24T01:50:37.942Z,12.63
2022-10-24T01:53:06.603Z,11.40
2022-10-24T01:55:33.887Z,10.55
2022-10-24T01:58:00.735Z,9.75
2022-10-24T02:00:27.775Z,9.98
2022-10-24T02:03:19.321Z,8.93
2022-10-24T02:05:51.703Z,7.90
2022-10-24T02:08:25.522Z,8.95
2022-10-24T02:10:57.502Z,8.85
2022-10-24T02:13:57.230Z,8.98
2022-10-24T02:16:24.171Z,8.95
2022-10-24T02:18:53.837Z,8.35
2022-10-24T02:21:57.983Z,7.88
2022-10-24T02:24:50.023Z,8.18
2022-10-24T02:27:29.342Z,7.13
2022-10-24T02:30:07.762Z,7.90
2022-10-24T02:32:40.755Z,7.50
2022-10-24T02:35:10.081Z,7.80
2022-10-24T02:37:42.928Z,6.47
2022-10-24T02:40:12.978Z,6.78
2022-10-24T02:42:42.848Z,7.03
2022-10-24T02:45:11.984Z,6.18
2022-10-24T02:47:40.997Z,6.28
2022-10-24T02:50:08.757Z,8.02
2022-10-24T02:52:38.443Z,13.38
2022-10-24T02:55:06.356Z,11.30
2022-10-24T02:57:33.545Z,12.20
2022-10-24T03:00:00.418Z,11.48
2022-10-24T03:02:27.289Z,7.88
2022-10-24T03:04:54.196Z,6.72
2022-10-24T03:07:21.152Z,5.85
2022-10-24T03:09:48.109Z,6.32
2022-10-24T03:12:17.080Z,4.90
2022-10-24T03:14:44.760Z,5.95
2022-10-24T03:17:11.708Z,6.22
2022-10-24T03:19:38.750Z,7.60
2022-10-24T03:22:05.702Z,8.23
2022-10-24T03:24:43.967Z,6.80
2022-10-24T03:27:11.277Z,8.32
2022-10-24T03:29:38.115Z,9.30
2022-10-24T03:32:05.779Z,8.52
2022-10-24T03:34:33.046Z,8.43
2022-10-24T03:36:59.967Z,9.30
2022-10-24T03:39:26.880Z,13.95
2022-10-24T03:41:53.729Z,13.25
2022-10-24T03:44:20.615Z,14.13
2022-10-24T03:46:47.522Z,14.75
2022-10-24T03:49:14.416Z,14.93
2022-10-24T03:51:41.302Z,12.73
2022-10-24T03:54:08.156Z,15.18
2022-10-24T03:56:35.022Z,17.98
2022-10-24T03:59:01.985Z,19.20
2022-10-24T04:01:29.122Z,19.45
2022-10-24T04:03:56.009Z,18.85
2022-10-24T04:06:22.901Z,16.35
2022-10-24T04:08:49.833Z,16.00
2022-10-24T04:11:16.673Z,14.77
2022-10-24T04:13:43.925Z,10.48
2022-10-24T04:16:10.866Z,5.97
2022-10-24T04:18:37.760Z,6.65
2022-10-24T04:21:05.050Z,5.47
2022-10-24T04:23:35.814Z,9.85
2022-10-24T04:26:02.808Z,11.63
2022-10-24T04:28:30.260Z,9.70
2022-10-24T04:30:57.740Z,9.13
2022-10-24T04:33:25.035Z,10.48
2022-10-24T04:35:52.828Z,9.73
2022-10-24T04:38:19.985Z,7.57
2022-10-24T04:40:49.425Z,6.95
2022-10-24T04:43:16.748Z,7.07
2022-10-24T04:45:43.644Z,5.65
2022-10-24T04:48:10.522Z,5.97
2022-10-24T04:50:39.281Z,4.57
2022-10-24T04:53:06.174Z,5.38
2022-10-24T04:55:33.174Z,6.68
2022-10-24T04:58:00.103Z,7.18
2022-10-24T05:00:27.383Z,6.32
2022-10-24T05:02:56.767Z,5.55
2022-10-24T05:05:26.035Z,5.40
2022-10-24T05:07:53.011Z,4.60
2022-10-24T05:10:20.391Z,4.82
2022-10-24T05:12:47.566Z,4.72
2022-10-24T05:15:15.161Z,6.05
2022-10-24T05:17:42.231Z,5.53
2022-10-24T05:20:09.675Z,6.50
2022-10-24T05:22:36.942Z,5.78
2022-10-24T05:25:04.550Z,5.28
2022-10-24T05:27:31.581Z,5.65
2022-10-24T05:29:58.609Z,5.72
2022-10-24T05:32:26.185Z,5.47
2022-10-24T05:34:53.115Z,5.45
2022-10-24T05:37:20.015Z,4.82
2022-10-24T05:39:46.995Z,5.05
2022-10-24T05:42:14.633Z,4.85
2022-10-24T05:44:41.612Z,5.80
2022-10-24T05:47:08.488Z,4.45
2022-10-24T05:49:35.697Z,5.78
2022-10-24T05:52:02.621Z,6.50
2022-10-24T05:54:37.621Z,4.32
2022-10-24T05:57:15.730Z,6.35
2022-10-24T05:59:42.604Z,5.25
2022-10-24T06:02:18.246Z,5.40
2022-10-24T06:04:45.643Z,7.18
2022-10-24T06:07:12.686Z,5.25
2022-10-24T06:09:41.837Z,4.97
2022-10-24T06:12:10.221Z,4.93
2022-10-24T06:14:38.472Z,4.05
2022-10-24T06:17:06.367Z,3.67
2022-10-24T06:19:33.322Z,3.47
2022-10-24T06:22:00.158Z,3.80
2022-10-24T06:24:27.009Z,3.25
2022-10-24T06:26:54.020Z,3.00
2022-10-24T06:29:20.954Z,3.80
2022-10-24T06:31:48.060Z,3.00
2022-10-24T06:34:15.158Z,3.22
2022-10-24T06:36:41.985Z,3.45
2022-10-24T06:39:08.883Z,3.17
2022-10-24T06:41:35.792Z,3.58
2022-10-24T06:44:04.321Z,3.55
2022-10-24T06:46:32.654Z,2.50
2022-10-24T06:48:59.712Z,2.80
2022-10-24T06:51:26.594Z,3.90
2022-10-24T06:53:53.442Z,5.55
2022-10-24T06:56:20.470Z,6.43
2022-10-24T06:58:47.362Z,5.15
2022-10-24T07:01:17.675Z,4.88
2022-10-24T07:03:45.143Z,4.68
2022-10-24T07:06:18.704Z,4.90
2022-10-24T07:08:46.335Z,4.75
2022-10-24T07:11:13.520Z,4.55
2022-10-24T07:13:40.632Z,5.18
2022-10-24T07:16:08.066Z,6.32
2022-10-24T07:18:34.970Z,5.88
2022-10-24T07:21:04.014Z,6.10
2022-10-24T07:23:31.423Z,5.20
2022-10-24T07:26:03.668Z,5.75
2022-10-24T07:28:30.565Z,5.38
2022-10-24T07:30:57.488Z,6.40
2022-10-24T07:33:24.812Z,6.20
2022-10-24T07:35:51.789Z,6.20
2022-10-24T07:38:18.932Z,5.30
2022-10-24T07:40:46.453Z,5.63
2022-10-24T07:43:13.458Z,3.88
2022-10-24T07:45:40.613Z,5.50
2022-10-24T07:48:07.537Z,4.95
2022-10-24T07:50:35.698Z,6.55
2022-10-24T07:53:02.548Z,4.68
2022-10-24T07:55:29.445Z,3.90
2022-10-24T07:57:57.785Z,3.80
2022-10-24T08:00:25.204Z,3.13
2022-10-24T08:02:52.102Z,3.28
2022-10-24T08:05:22.154Z,2.45
2022-10-24T08:07:56.291Z,2.80
2022-10-24T08:10:33.046Z,2.88
2022-10-24T08:13:00.042Z,3.22
2022-10-24T08:15:27.973Z,3.60
2022-10-24T08:17:55.407Z,4.13
2022-10-24T08:20:24.244Z,3.42
2022-10-24T08:22:51.139Z,3.92
2022-10-24T08:25:18.124Z,3.15
2022-10-24T08:27:45.057Z,2.88
2022-10-24T08:30:12.613Z,3.08
2022-10-24T08:32:40.349Z,3.10
2022-10-24T08:35:07.962Z,1.98
2022-10-24T08:40:16.737Z,2.15
2022-10-24T08:42:44.556Z,2.22
2022-10-24T08:45:27.867Z,1.60
2022-10-24T08:48:14.040Z,2.28
2022-10-24T08:50:47.541Z,2.33
2022-10-24T08:53:22.952Z,2.00
2022-10-24T08:55:55.734Z,1.88
2022-10-24T08:58:34.415Z,2.38
2022-10-24T09:01:05.108Z,1.45
2022-10-24T09:03:54.998Z,1.50
2022-10-24T09:06:25.972Z,1.42
2022-10-24T09:08:55.680Z,1.70
2022-10-24T09:11:47.331Z,1.60
2022-10-24T09:14:22.992Z,1.50
2022-10-24T09:16:54.819Z,1.45
2022-10-24T09:19:24.703Z,1.30
2022-10-24T09:21:54.333Z,1.88
2022-10-24T09:24:59.864Z,1.92
2022-10-24T09:27:38.454Z,1.55
2022-10-24T09:30:08.102Z,1.65
2022-10-24T09:32:36.890Z,1.63
2022-10-24T09:35:08.993Z,1.50
2022-10-24T09:37:43.890Z,3.33
2022-10-24T09:40:24.238Z,2.33
2022-10-24T09:43:00.801Z,1.45
2022-10-24T09:45:37.421Z,1.73
2022-10-24T09:48:26.060Z,1.75
2022-10-24T09:50:57.309Z,1.00
2022-10-24T09:53:36.174Z,1.08
2022-10-24T09:56:15.977Z,1.15
2022-10-24T09:58:43.234Z,0.98
2022-10-24T10:01:22.936Z,1.30
2022-10-24T10:04:10.085Z,1.25
2022-10-24T10:06:47.294Z,2.15
2022-10-24T10:09:26.007Z,2.42
2022-10-24T10:12:02.469Z,1.60
2022-10-24T10:14:30.370Z,1.13
2022-10-24T10:17:07.605Z,1.10
2022-10-24T10:19:38.804Z,1.40
2022-10-24T10:22:20.825Z,1.02
2022-10-24T10:24:48.233Z,1.30
2022-10-24T10:27:32.188Z,1.60
2022-10-24T10:30:17.184Z,2.00
2022-10-24T10:32:53.873Z,2.50
2022-10-24T10:35:28.257Z,2.53
2022-10-24T10:40:24.863Z,2.33
2022-10-24T10:43:03.776Z,2.25
2022-10-24T10:45:51.004Z,1.80
2022-10-24T10:48:56.201Z,1.80
2022-10-24T10:52:04.486Z,2.42
2022-10-24T10:54:49.548Z,2.22
2022-10-24T10:57:35.342Z,2.25
2022-10-24T11:00:12.430Z,2.20
2022-10-24T11:03:21.122Z,2.35
2022-10-24T11:06:10.538Z,3.60
2022-10-24T11:09:08.228Z,2.15
2022-10-24T11:11:41.299Z,2.08
2022-10-24T11:14:31.988Z,3.28
2022-10-24T11:17:26.580Z,1.90
2022-10-24T11:20:31.425Z,3.17
2022-10-24T11:23:10.010Z,2.15
2022-10-24T11:25:43.156Z,2.35
2022-10-24T11:28:12.838Z,1.88
2022-10-24T11:30:47.429Z,1.80
2022-10-24T11:33:19.215Z,2.45
2022-10-24T11:36:17.127Z,2.83
2022-10-24T11:38:54.085Z,2.65
2022-10-24T11:41:40.089Z,2.53
2022-10-24T11:44:23.340Z,2.20
2022-10-24T11:47:05.522Z,2.10
2022-10-24T11:49:46.090Z,2.33
2022-10-24T11:52:21.960Z,2.38
2022-10-24T11:55:21.735Z,2.55
2022-10-24T11:57:58.680Z,2.90
2022-10-24T12:00:32.172Z,2.42
2022-10-24T12:03:47.147Z,2.10
2022-10-24T12:06:40.531Z,2.78
2022-10-24T12:09:24.188Z,2.40
2022-10-24T12:12:23.176Z,2.17
2022-10-24T12:15:27.442Z,2.70
2022-10-24T12:17:54.274Z,1.60
2022-10-24T12:20:23.360Z,2.15
2022-10-24T12:22:51.664Z,1.95
2022-10-24T12:25:30.214Z,2.08
2022-10-24T12:28:03.443Z,2.13
2022-10-24T12:30:36.508Z,2.38
2022-10-24T12:33:03.487Z,2.63
2022-10-24T12:35:37.594Z,1.67
2022-10-24T12:38:35.781Z,1.80
2022-10-24T12:41:24.012Z,3.33
2022-10-24T12:43:50.981Z,2.75
2022-10-24T12:46:23.140Z,2.92
2022-10-24T12:48:59.378Z,1.95
2022-10-24T12:51:39.233Z,2.00
2022-10-24T12:54:12.136Z,1.88
2022-10-24T12:56:54.109Z,1.85
2022-10-24T12:59:44.958Z,2.25
2022-10-24T13:02:12.701Z,1.70
2022-10-24T13:04:48.704Z,1.90
2022-10-24T13:07:30.560Z,1.45
2022-10-24T13:10:18.909Z,1.85
2022-10-24T13:13:00.860Z,1.33
2022-10-24T13:15:57.502Z,1.50
2022-10-24T13:18:42.725Z,1.10
2022-10-24T13:21:31.433Z,2.20
2022-10-24T13:24:16.729Z,1.48
2022-10-24T13:26:55.857Z,2.70
2022-10-24T13:29:28.984Z,1.80
2022-10-24T13:32:18.686Z,1.30
2022-10-24T13:34:50.659Z,1.65
2022-10-24T13:37:25.756Z,1.60
2022-10-24T13:40:27.993Z,1.58
2022-10-24T13:43:02.165Z,1.40
2022-10-24T13:46:00.518Z,1.42
2022-10-24T13:48:35.066Z,1.52
2022-10-24T13:51:17.412Z,1.17
2022-10-24T13:53:50.268Z,1.33
2022-10-24T13:56:18.145Z,1.05
2022-10-24T13:58:45.755Z,1.42
2022-10-24T14:01:24.086Z,1.33
2022-10-24T14:03:52.539Z,1.08
2022-10-24T14:06:31.102Z,1.58
2022-10-24T14:09:06.869Z,1.20
2022-10-24T14:11:39.360Z,1.05
2022-10-24T14:14:22.242Z,1.35
2022-10-24T14:17:05.871Z,1.50
2022-10-24T14:19:36.176Z,1.65
2022-10-24T14:22:18.874Z,1.42
2022-10-24T14:24:48.387Z,1.50
2022-10-24T14:27:16.187Z,1.58
2022-10-24T14:29:56.856Z,1.95
2022-10-24T14:32:25.587Z,2.05
2022-10-24T14:34:55.508Z,2.05
2022-10-24T14:37:35.799Z,2.40
2022-10-24T14:40:04.819Z,2.78
2022-10-24T14:42:32.483Z,2.08
2022-10-24T14:45:00.163Z,2.47
2022-10-24T14:47:34.223Z,2.60
2022-10-24T14:50:01.686Z,2.27
2022-10-24T14:52:37.084Z,2.22
2022-10-24T14:55:08.183Z,2.42
2022-10-24T14:57:36.955Z,2.15
2022-10-24T15:00:19.728Z,2.10
2022-10-24T15:02:49.999Z,3.50
2022-10-24T15:05:19.865Z,2.88
2022-10-24T15:08:09.353Z,2.97
2022-10-24T15:10:36.116Z,2.55
2022-10-24T15:13:11.637Z,3.40
2022-10-24T15:15:49.603Z,2.92
2022-10-24T15:18:41.264Z,3.58
2022-10-24T15:21:15.125Z,3.22
2022-10-24T15:23:55.679Z,3.72
2022-10-24T15:26:42.855Z,3.75
2022-10-24T15:29:12.555Z,4.03
2022-10-24T15:31:48.238Z,5.20
2022-10-24T15:34:18.485Z,3.70
2022-10-24T15:36:47.110Z,4.20
2022-10-24T15:39:17.479Z,4.05
2022-10-24T15:41:44.425Z,4.07
2022-10-24T15:44:18.902Z,3.85
2022-10-24T15:46:46.938Z,3.58
2022-10-24T15:49:14.395Z,3.60
2022-10-24T15:51:45.991Z,4.63
2022-10-24T15:54:19.569Z,3.85
2022-10-24T15:56:47.199Z,4.63
2022-10-24T15:59:14.662Z,5.70
2022-10-24T16:02:03.165Z,4.57
2022-10-24T16:04:32.704Z,4.45
2022-10-24T16:07:00.077Z,4.25
2022-10-24T16:09:27.874Z,5.13
2022-10-24T16:11:55.295Z,4.93
2022-10-24T16:14:23.722Z,4.70
2022-10-24T16:16:50.659Z,4.03
2022-10-24T16:19:17.644Z,4.30
2022-10-24T16:21:44.815Z,4.43
2022-10-24T16:24:12.767Z,3.45
2022-10-24T16:26:40.692Z,3.53
2022-10-24T16:29:07.796Z,3.63
2022-10-24T16:31:35.203Z,3.33
2022-10-24T16:34:02.060Z,3.33
2022-10-24T16:36:29.410Z,3.15
2022-10-24T16:38:56.493Z,2.80
2022-10-24T16:41:26.025Z,3.15
2022-10-24T16:43:57.824Z,3.20
2022-10-24T16:46:26.727Z,3.38
2022-10-24T16:48:53.796Z,4.00
2022-10-24T16:51:32.256Z,4.95
2022-10-24T16:54:00.965Z,5.35
2022-10-24T16:56:29.005Z,3.33
2022-10-24T16:58:55.932Z,4.47
2022-10-24T17:01:23.324Z,4.18
2022-10-24T17:03:50.326Z,4.53
2022-10-24T17:06:17.234Z,4.00
2022-10-24T17:08:44.276Z,4.32
2022-10-24T17:11:39.529Z,2.60
2022-10-24T17:13:58.622Z,2.88
2022-10-24T17:16:25.662Z,2.88
2022-10-24T17:19:12.171Z,4.70
2022-10-24T17:21:39.561Z,2.53
2022-10-24T17:24:12.078Z,3.08
2022-10-24T17:26:39.907Z,3.30
2022-10-24T17:29:08.502Z,2.28
2022-10-24T17:31:36.093Z,2.97
2022-10-24T17:34:03.487Z,2.85
2022-10-24T17:36:34.951Z,2.85
2022-10-24T17:39:33.616Z,2.95
2022-10-24T17:42:00.565Z,3.03
2022-10-24T17:44:27.601Z,3.15
2022-10-24T17:46:58.251Z,3.20
2022-10-24T17:49:25.398Z,2.85
2022-10-24T17:51:52.388Z,2.78
2022-10-24T17:54:19.325Z,3.80
2022-10-24T17:56:46.341Z,2.97
2022-10-24T17:59:13.765Z,2.80
2022-10-24T18:01:41.217Z,2.70
2022-10-24T18:04:08.239Z,3.13
2022-10-24T18:06:37.251Z,3.13
2022-10-24T18:09:07.598Z,3.70
2022-10-24T18:11:34.501Z,3.50
2022-10-24T18:14:01.456Z,3.40
2022-10-24T18:16:30.599Z,4.10
2022-10-24T18:18:57.897Z,4.18
2022-10-24T18:21:25.711Z,4.82
2022-10-24T18:23:54.352Z,4.10
2022-10-24T18:26:24.278Z,3.40
2022-10-24T18:28:53.402Z,3.58
2022-10-24T18:31:26.206Z,2.75
2022-10-24T18:33:54.402Z,2.70
2022-10-24T18:36:27.785Z,2.72
2022-10-24T18:38:56.074Z,2.33
2022-10-24T18:41:37.804Z,2.03
2022-10-24T18:44:29.284Z,2.22
2022-10-24T18:47:01.317Z,2.60
2022-10-24T18:49:30.261Z,2.38
2022-10-24T18:52:12.315Z,2.60
2022-10-24T18:54:53.221Z,2.80
2022-10-24T18:57:28.740Z,3.33
2022-10-24T18:59:57.408Z,4.95
2022-10-24T19:02:37.640Z,4.93
2022-10-24T19:05:14.580Z,5.20
2022-10-24T19:07:42.567Z,5.53
2022-10-24T19:10:22.832Z,5.03
2022-10-24T19:12:50.906Z,5.10
2022-10-24T19:15:18.436Z,4.55
2022-10-24T19:17:46.714Z,3.33
2022-10-24T19:20:16.322Z,3.38
2022-10-24T19:22:43.520Z,2.60
2022-10-24T19:25:10.972Z,2.55
2022-10-24T19:27:37.966Z,2.45
2022-10-24T19:30:05.964Z,2.20
2022-10-24T19:32:33.238Z,2.45
2022-10-24T19:35:00.167Z,1.85
2022-10-24T19:37:27.297Z,2.75
2022-10-24T19:39:54.211Z,3.15
2022-10-24T19:42:21.298Z,3.58
2022-10-24T19:44:50.166Z,3.90
2022-10-24T19:47:17.310Z,2.60
2022-10-24T19:49:44.177Z,2.45
2022-10-24T19:52:11.202Z,5.00
2022-10-24T19:54:38.178Z,5.20
2022-10-24T19:57:05.045Z,4.40
2022-10-24T19:59:33.996Z,4.03
2022-10-24T20:02:01.056Z,4.40
2022-10-24T20:04:28.238Z,7.70
2022-10-24T20:06:55.147Z,7.57
2022-10-24T20:09:22.068Z,7.57
2022-10-24T20:11:49.022Z,5.60
2022-10-24T20:14:15.986Z,5.93
2022-10-24T20:16:42.898Z,2.92
2022-10-24T20:19:09.910Z,2.33
2022-10-24T20:21:37.710Z,3.33
2022-10-24T20:24:04.952Z,2.80
2022-10-24T20:26:32.105Z,2.75
2022-10-24T20:28:59.200Z,2.85
2022-10-24T20:31:33.799Z,2.47
2022-10-24T20:34:07.089Z,2.47
2022-10-24T20:36:36.241Z,2.77
2022-10-24T20:39:05.188Z,2.80
2022-10-24T20:41:32.222Z,2.15
2022-10-24T20:43:59.152Z,2.42
2022-10-24T20:46:26.022Z,2.25
2022-10-24T20:48:53.942Z,3.78
2022-10-24T20:51:21.389Z,3.53
2022-10-24T20:53:48.417Z,3.30
2022-10-24T20:56:18.194Z,3.85
2022-10-24T20:58:45.567Z,3.10
2022-10-24T21:01:17.172Z,3.10
2022-10-24T21:03:44.589Z,3.47
2022-10-24T21:06:15.904Z,3.95
2022-10-24T21:08:42.854Z,3.35
2022-10-24T21:11:13.358Z,5.43
2022-10-24T21:13:40.237Z,6.22
2022-10-24T21:16:07.578Z,6.28
2022-10-24T21:18:34.464Z,5.65
2022-10-24T21:21:12.511Z,6.15
2022-10-24T21:23:39.747Z,5.15
2022-10-24T21:26:12.989Z,4.88
2022-10-24T21:28:39.903Z,5.22
2022-10-24T21:31:09.646Z,5.03
2022-10-24T21:33:37.610Z,4.55
2022-10-24T21:36:06.580Z,4.45
2022-10-24T21:38:33.862Z,4.00
2022-10-24T21:41:08.737Z,4.03
2022-10-24T21:43:38.303Z,3.40
2022-10-24T21:46:13.859Z,3.17
2022-10-24T21:48:42.367Z,5.15
2022-10-24T21:51:10.521Z,4.65
2022-10-24T21:53:40.504Z,4.00
2022-10-24T21:56:10.863Z,4.47
2022-10-24T21:58:38.101Z,4.57
2022-10-24T22:01:13.401Z,4.03
2022-10-24T22:03:41.825Z,4.82
2022-10-24T22:06:11.612Z,4.70
2022-10-24T22:08:38.556Z,4.68
2022-10-24T22:11:08.464Z,4.03
2022-10-24T22:13:36.872Z,4.78
2022-10-24T22:16:04.654Z,4.35
2022-10-24T22:18:32.933Z,4.28
2022-10-24T22:21:01.622Z,4.40
2022-10-24T22:23:28.807Z,4.20
2022-10-24T22:25:55.913Z,4.18
2022-10-24T22:28:22.808Z,4.30
2022-10-24T22:30:50.061Z,3.92
2022-10-24T22:33:31.257Z,4.03
2022-10-24T22:36:03.254Z,4.55
2022-10-24T22:38:30.295Z,4.30
2022-10-24T22:40:57.508Z,4.47
2022-10-24T22:43:24.707Z,4.80
2022-10-24T22:46:03.649Z,4.55
2022-10-24T22:48:37.094Z,4.13
2022-10-24T22:51:04.261Z,5.05
2022-10-24T22:53:31.503Z,4.72
2022-10-24T22:56:11.459Z,4.80
2022-10-24T22:58:39.822Z,4.38
2022-10-24T23:01:15.727Z,4.95
2022-10-24T23:04:08.077Z,4.80
2022-10-24T23:06:51.544Z,5.05
2022-10-24T23:09:18.511Z,4.85
2022-10-24T23:11:45.724Z,5.00
2022-10-24T23:14:13.004Z,5.05
2022-10-24T23:16:51.658Z,5.18
2022-10-24T23:19:21.925Z,5.63
2022-10-24T23:21:56.739Z,5.15
2022-10-24T23:24:23.871Z,5.32
2022-10-24T23:27:19.057Z,5.47
2022-10-24T23:29:47.220Z,6.90
2022-10-24T23:32:19.575Z,8.00
2022-10-24T23:34:46.894Z,7.10
2022-10-24T23:37:34.755Z,6.78
2022-10-24T23:40:17.075Z,7.20
2022-10-24T23:42:51.497Z,7.65
2022-10-24T23:45:21.302Z,7.35
2022-10-24T23:47:53.320Z,7.70
2022-10-24T23:51:06.845Z,7.70
2022-10-24T23:53:33.661Z,7.25
2022-10-24T23:58:32.656Z,5.93
